sensor_id;sensor_type;location;lat;lon;timestamp;pressure;altitude;pressure_sealevel;temperature;humidity
64862;BME280;62652;42.274;-71.436;2023-10-09T00:00:00;99690.0;;;13.0;84.2
64862;BME280;62652;42.274;-71.436;2023-10-09T00:01:01;99680.0;;;13.0;85.1
64862;BME280;62652;42.274;-71.436;2023-10-09T00:02:00;99680.0;;;12.888888888888891;86.2
64862;BME280;62652;42.274;-71.436;2023-10-09T00:03:01;99690.0;;;12.777777777777779;87.6
64862;BME280;62652;42.274;-71.436;2023-10-09T00:04:00;99690.0;;;12.722222222222221;88.2
64862;BME280;62652;42.274;-71.436;2023-10-09T00:05:00;99690.0;;;12.777777777777779;88.7
64862;BME280;62652;42.274;-71.436;2023-10-09T00:06:00;99690.0;;;12.777777777777779;89.1
64862;BME280;62652;42.274;-71.436;2023-10-09T00:07:01;99690.0;;;12.722222222222221;89.2
64862;BME280;62652;42.274;-71.436;2023-10-09T00:08:01;99690.0;;;12.777777777777779;88.7
64862;BME280;62652;42.274;-71.436;2023-10-09T00:09:00;99700.0;;;12.777777777777779;88.8
64862;BME280;62652;42.274;-71.436;2023-10-09T00:10:00;99700.0;;;12.777777777777779;89.3
64862;BME280;62652;42.274;-71.436;2023-10-09T00:11:01;99700.0;;;12.777777777777779;88.4
64862;BME280;62652;42.274;-71.436;2023-10-09T00:12:01;99700.0;;;12.722222222222221;89.3
64862;BME280;62652;42.274;-71.436;2023-10-09T00:13:01;99710.0;;;12.722222222222221;89.7
64862;BME280;62652;42.274;-71.436;2023-10-09T00:14:00;99710.0;;;12.722222222222221;89.7
64862;BME280;62652;42.274;-71.436;2023-10-09T00:15:00;99710.0;;;12.722222222222221;90.3
64862;BME280;62652;42.274;-71.436;2023-10-09T00:16:04;99710.0;;;12.5;91.0
64862;BME280;62652;42.274;-71.436;2023-10-09T00:17:00;99700.0;;;12.5;91.8
64862;BME280;62652;42.274;-71.436;2023-10-09T00:18:01;99710.0;;;12.611111111111112;91.6
64862;BME280;62652;42.274;-71.436;2023-10-09T00:19:01;99710.0;;;12.611111111111112;92.8
64862;BME280;62652;42.274;-71.436;2023-10-09T00:20:00;99710.0;;;12.5;92.5
64862;BME280;62652;42.274;-71.436;2023-10-09T00:21:01;99710.0;;;12.5;92.5
64862;BME280;62652;42.274;-71.436;2023-10-09T00:22:01;99710.0;;;12.5;92.1
64862;BME280;62652;42.274;-71.436;2023-10-09T00:23:00;99720.0;;;12.611111111111112;92.3
64862;BME280;62652;42.274;-71.436;2023-10-09T00:24:00;99710.0;;;12.5;92.3
64862;BME280;62652;42.274;-71.436;2023-10-09T00:25:00;99720.0;;;12.5;92.3
64862;BME280;62652;42.274;-71.436;2023-10-09T00:26:01;99720.0;;;12.5;92.3
64862;BME280;62652;42.274;-71.436;2023-10-09T00:27:00;99730.0;;;12.388888888888888;92.8
64862;BME280;62652;42.274;-71.436;2023-10-09T00:28:01;99720.0;;;12.388888888888888;93.3
64862;BME280;62652;42.274;-71.436;2023-10-09T00:29:00;99720.0;;;12.5;93.2
64862;BME280;62652;42.274;-71.436;2023-10-09T00:30:00;99720.0;;;12.388888888888888;92.6
64862;BME280;62652;42.274;-71.436;2023-10-09T00:31:02;99720.0;;;12.388888888888888;92.9
64862;BME280;62652;42.274;-71.436;2023-10-09T00:32:00;99720.0;;;12.5;93.0
64862;BME280;62652;42.274;-71.436;2023-10-09T00:33:00;99730.0;;;12.277777777777779;93.5
64862;BME280;62652;42.274;-71.436;2023-10-09T00:34:01;99720.0;;;12.388888888888888;94.1
64862;BME280;62652;42.274;-71.436;2023-10-09T00:35:00;99720.0;;;12.388888888888888;93.9
64862;BME280;62652;42.274;-71.436;2023-10-09T00:36:03;99730.0;;;12.388888888888888;93.6
64862;BME280;62652;42.274;-71.436;2023-10-09T00:37:00;99730.0;;;12.388888888888888;93.6
64862;BME280;62652;42.274;-71.436;2023-10-09T00:38:01;99720.0;;;12.388888888888888;93.4
64862;BME280;62652;42.274;-71.436;2023-10-09T00:39:00;99730.0;;;12.388888888888888;92.7
64862;BME280;62652;42.274;-71.436;2023-10-09T00:40:00;99720.0;;;12.388888888888888;93.0
64862;BME280;62652;42.274;-71.436;2023-10-09T00:41:00;99720.0;;;12.388888888888888;93.2
64862;BME280;62652;42.274;-71.436;2023-10-09T00:42:01;99720.0;;;12.388888888888888;93.3
64862;BME280;62652;42.274;-71.436;2023-10-09T00:43:01;99720.0;;;12.388888888888888;93.7
64862;BME280;62652;42.274;-71.436;2023-10-09T00:44:00;99720.0;;;12.277777777777779;93.7
64862;BME280;62652;42.274;-71.436;2023-10-09T00:45:01;99720.0;;;12.277777777777779;94.0
64862;BME280;62652;42.274;-71.436;2023-10-09T00:46:01;99720.0;;;12.222222222222221;94.2
64862;BME280;62652;42.274;-71.436;2023-10-09T00:47:00;99720.0;;;12.222222222222221;94.8
64862;BME280;62652;42.274;-71.436;2023-10-09T00:48:00;99720.0;;;12.222222222222221;95.0
64862;BME280;62652;42.274;-71.436;2023-10-09T00:49:00;99730.0;;;12.222222222222221;95.6
64862;BME280;62652;42.274;-71.436;2023-10-09T00:50:04;99730.0;;;12.222222222222221;96.5
64862;BME280;62652;42.274;-71.436;2023-10-09T00:51:01;99730.0;;;12.222222222222221;96.0
64862;BME280;62652;42.274;-71.436;2023-10-09T00:52:01;99730.0;;;12.111111111111109;96.5
64862;BME280;62652;42.274;-71.436;2023-10-09T00:53:01;99730.0;;;12.111111111111109;96.9
64862;BME280;62652;42.274;-71.436;2023-10-09T00:54:01;99740.0;;;12.111111111111109;97.3
64862;BME280;62652;42.274;-71.436;2023-10-09T00:55:01;99740.0;;;12.111111111111109;97.6
64862;BME280;62652;42.274;-71.436;2023-10-09T00:56:02;99740.0;;;12.0;98.1
64862;BME280;62652;42.274;-71.436;2023-10-09T00:57:00;99740.0;;;12.0;98.5
64862;BME280;62652;42.274;-71.436;2023-10-09T00:58:01;99750.0;;;11.88888888888889;99.3
64862;BME280;62652;42.274;-71.436;2023-10-09T00:59:01;99750.0;;;11.88888888888889;99.6
64862;BME280;62652;42.274;-71.436;2023-10-09T01:00:00;99750.0;;;11.88888888888889;100.0
64862;BME280;62652;42.274;-71.436;2023-10-09T01:01:00;99750.0;;;11.88888888888889;100.0
64862;BME280;62652;42.274;-71.436;2023-10-09T01:02:00;99750.0;;;11.88888888888889;100.0
64862;BME280;62652;42.274;-71.436;2023-10-09T01:03:02;99750.0;;;11.777777777777779;100.0
64862;BME280;62652;42.274;-71.436;2023-10-09T01:04:01;99750.0;;;11.777777777777779;100.0
64862;BME280;62652;42.274;-71.436;2023-10-09T01:05:02;99760.0;;;11.777777777777779;100.0
64862;BME280;62652;42.274;-71.436;2023-10-09T01:06:02;99760.0;;;11.777777777777779;100.0
64862;BME280;62652;42.274;-71.436;2023-10-09T01:07:01;99760.0;;;11.777777777777779;100.0
64862;BME280;62652;42.274;-71.436;2023-10-09T01:08:00;99760.0;;;11.722222222222221;100.0
64862;BME280;62652;42.274;-71.436;2023-10-09T01:09:01;99760.0;;;11.61111111111111;100.0
64862;BME280;62652;42.274;-71.436;2023-10-09T01:10:00;99760.0;;;11.722222222222221;100.0
64862;BME280;62652;42.274;-71.436;2023-10-09T01:11:01;99760.0;;;11.61111111111111;100.0
64862;BME280;62652;42.274;-71.436;2023-10-09T01:12:00;99750.0;;;11.61111111111111;100.0
64862;BME280;62652;42.274;-71.436;2023-10-09T01:13:00;99760.0;;;11.61111111111111;100.0
64862;BME280;62652;42.274;-71.436;2023-10-09T01:14:00;99760.0;;;11.61111111111111;100.0
64862;BME280;62652;42.274;-71.436;2023-10-09T01:15:01;99760.0;;;11.722222222222221;100.0
64862;BME280;62652;42.274;-71.436;2023-10-09T01:16:04;99760.0;;;11.722222222222221;100.0
64862;BME280;62652;42.274;-71.436;2023-10-09T01:17:00;99760.0;;;11.722222222222221;100.0
64862;BME280;62652;42.274;-71.436;2023-10-09T01:18:02;99760.0;;;11.722222222222221;100.0
64862;BME280;62652;42.274;-71.436;2023-10-09T01:19:01;99760.0;;;11.722222222222221;100.0
64862;BME280;62652;42.274;-71.436;2023-10-09T01:20:01;99760.0;;;11.722222222222221;100.0
64862;BME280;62652;42.274;-71.436;2023-10-09T01:21:00;99760.0;;;11.722222222222221;100.0
64862;BME280;62652;42.274;-71.436;2023-10-09T01:22:01;99760.0;;;11.722222222222221;100.0
64862;BME280;62652;42.274;-71.436;2023-10-09T01:23:01;99760.0;;;11.61111111111111;100.0
64862;BME280;62652;42.274;-71.436;2023-10-09T01:24:00;99760.0;;;11.500000000000002;100.0
64862;BME280;62652;42.274;-71.436;2023-10-09T01:25:00;99760.0;;;11.61111111111111;100.0
64862;BME280;62652;42.274;-71.436;2023-10-09T01:26:01;99760.0;;;11.61111111111111;100.0
64862;BME280;62652;42.274;-71.436;2023-10-09T01:27:01;99770.0;;;11.61111111111111;100.0
64862;BME280;62652;42.274;-71.436;2023-10-09T01:28:00;99770.0;;;11.61111111111111;100.0
64862;BME280;62652;42.274;-71.436;2023-10-09T01:29:01;99770.0;;;11.61111111111111;100.0
64862;BME280;62652;42.274;-71.436;2023-10-09T01:30:01;99770.0;;;11.722222222222221;100.0
64862;BME280;62652;42.274;-71.436;2023-10-09T01:31:00;99770.0;;;11.61111111111111;100.0
64862;BME280;62652;42.274;-71.436;2023-10-09T01:32:01;99770.0;;;11.722222222222221;100.0
64862;BME280;62652;42.274;-71.436;2023-10-09T01:33:01;99780.0;;;11.722222222222221;100.0
64862;BME280;62652;42.274;-71.436;2023-10-09T01:34:00;99780.0;;;11.61111111111111;100.0
64862;BME280;62652;42.274;-71.436;2023-10-09T01:35:00;99780.0;;;11.500000000000002;100.0
64862;BME280;62652;42.274;-71.436;2023-10-09T01:36:00;99780.0;;;11.500000000000002;100.0
64862;BME280;62652;42.274;-71.436;2023-10-09T01:37:01;99780.0;;;11.61111111111111;100.0
64862;BME280;62652;42.274;-71.436;2023-10-09T01:38:00;99780.0;;;11.61111111111111;100.0
64862;BME280;62652;42.274;-71.436;2023-10-09T01:39:01;99780.0;;;11.722222222222221;100.0
64862;BME280;62652;42.274;-71.436;2023-10-09T01:40:01;99780.0;;;11.61111111111111;100.0
64862;BME280;62652;42.274;-71.436;2023-10-09T01:41:00;99780.0;;;11.722222222222221;100.0
64862;BME280;62652;42.274;-71.436;2023-10-09T01:42:00;99780.0;;;11.722222222222221;100.0
64862;BME280;62652;42.274;-71.436;2023-10-09T01:43:01;99780.0;;;11.722222222222221;100.0
64862;BME280;62652;42.274;-71.436;2023-10-09T01:44:00;99780.0;;;11.61111111111111;100.0
64862;BME280;62652;42.274;-71.436;2023-10-09T01:45:01;99780.0;;;11.722222222222221;100.0
64862;BME280;62652;42.274;-71.436;2023-10-09T01:46:01;99780.0;;;11.722222222222221;100.0
64862;BME280;62652;42.274;-71.436;2023-10-09T01:47:01;99790.0;;;11.722222222222221;100.0
64862;BME280;62652;42.274;-71.436;2023-10-09T01:48:00;99790.0;;;11.722222222222221;99.4
64862;BME280;62652;42.274;-71.436;2023-10-09T01:49:01;99790.0;;;11.722222222222221;99.8
64862;BME280;62652;42.274;-71.436;2023-10-09T01:50:01;99790.0;;;11.722222222222221;100.0
64862;BME280;62652;42.274;-71.436;2023-10-09T01:51:00;99790.0;;;11.61111111111111;100.0
64862;BME280;62652;42.274;-71.436;2023-10-09T01:52:00;99790.0;;;11.61111111111111;100.0
64862;BME280;62652;42.274;-71.436;2023-10-09T01:53:01;99790.0;;;11.722222222222221;100.0
64862;BME280;62652;42.274;-71.436;2023-10-09T01:54:00;99790.0;;;11.722222222222221;100.0
64862;BME280;62652;42.274;-71.436;2023-10-09T01:55:01;99790.0;;;11.61111111111111;100.0
64862;BME280;62652;42.274;-71.436;2023-10-09T01:56:09;99790.0;;;11.61111111111111;100.0
64862;BME280;62652;42.274;-71.436;2023-10-09T01:57:00;99790.0;;;11.61111111111111;100.0
64862;BME280;62652;42.274;-71.436;2023-10-09T01:58:01;99790.0;;;11.61111111111111;100.0
64862;BME280;62652;42.274;-71.436;2023-10-09T01:59:00;99790.0;;;11.61111111111111;100.0
64862;BME280;62652;42.274;-71.436;2023-10-09T02:00:00;99790.0;;;11.61111111111111;100.0
64862;BME280;62652;42.274;-71.436;2023-10-09T02:01:01;99790.0;;;11.61111111111111;100.0
64862;BME280;62652;42.274;-71.436;2023-10-09T02:02:01;99790.0;;;11.61111111111111;100.0
64862;BME280;62652;42.274;-71.436;2023-10-09T02:03:01;99790.0;;;11.61111111111111;100.0
64862;BME280;62652;42.274;-71.436;2023-10-09T02:04:00;99790.0;;;11.61111111111111;100.0
64862;BME280;62652;42.274;-71.436;2023-10-09T02:05:03;99790.0;;;11.61111111111111;100.0
64862;BME280;62652;42.274;-71.436;2023-10-09T02:06:00;99790.0;;;11.61111111111111;100.0
64862;BME280;62652;42.274;-71.436;2023-10-09T02:07:00;99790.0;;;11.500000000000002;100.0
64862;BME280;62652;42.274;-71.436;2023-10-09T02:08:01;99790.0;;;11.500000000000002;100.0
64862;BME280;62652;42.274;-71.436;2023-10-09T02:09:00;99790.0;;;11.500000000000002;100.0
64862;BME280;62652;42.274;-71.436;2023-10-09T02:10:00;99800.0;;;11.500000000000002;100.0
64862;BME280;62652;42.274;-71.436;2023-10-09T02:11:01;99800.0;;;11.38888888888889;100.0
64862;BME280;62652;42.274;-71.436;2023-10-09T02:12:01;99800.0;;;11.500000000000002;100.0
64862;BME280;62652;42.274;-71.436;2023-10-09T02:13:01;99790.0;;;11.500000000000002;100.0
64862;BME280;62652;42.274;-71.436;2023-10-09T02:14:01;99800.0;;;11.500000000000002;100.0
64862;BME280;62652;42.274;-71.436;2023-10-09T02:15:01;99790.0;;;11.500000000000002;100.0
64862;BME280;62652;42.274;-71.436;2023-10-09T02:16:01;99800.0;;;11.500000000000002;100.0
64862;BME280;62652;42.274;-71.436;2023-10-09T02:17:01;99790.0;;;11.500000000000002;100.0
64862;BME280;62652;42.274;-71.436;2023-10-09T02:18:00;99800.0;;;11.38888888888889;100.0
64862;BME280;62652;42.274;-71.436;2023-10-09T02:19:00;99800.0;;;11.38888888888889;100.0
64862;BME280;62652;42.274;-71.436;2023-10-09T02:20:00;99790.0;;;11.500000000000002;100.0
64862;BME280;62652;42.274;-71.436;2023-10-09T02:21:07;99800.0;;;11.38888888888889;100.0
64862;BME280;62652;42.274;-71.436;2023-10-09T02:22:01;99800.0;;;11.38888888888889;100.0
64862;BME280;62652;42.274;-71.436;2023-10-09T02:23:00;99800.0;;;11.38888888888889;100.0
64862;BME280;62652;42.274;-71.436;2023-10-09T02:24:01;99800.0;;;11.38888888888889;100.0
64862;BME280;62652;42.274;-71.436;2023-10-09T02:25:00;99800.0;;;11.38888888888889;100.0
64862;BME280;62652;42.274;-71.436;2023-10-09T02:26:01;99800.0;;;11.277777777777777;100.0
64862;BME280;62652;42.274;-71.436;2023-10-09T02:27:00;99800.0;;;11.38888888888889;100.0
64862;BME280;62652;42.274;-71.436;2023-10-09T02:28:01;99800.0;;;11.38888888888889;100.0
64862;BME280;62652;42.274;-71.436;2023-10-09T02:29:01;99800.0;;;11.277777777777777;100.0
64862;BME280;62652;42.274;-71.436;2023-10-09T02:30:00;99810.0;;;11.277777777777777;100.0
64862;BME280;62652;42.274;-71.436;2023-10-09T02:31:01;99810.0;;;11.277777777777777;100.0
64862;BME280;62652;42.274;-71.436;2023-10-09T02:32:00;99810.0;;;11.277777777777777;100.0
64862;BME280;62652;42.274;-71.436;2023-10-09T02:33:00;99810.0;;;11.38888888888889;100.0
64862;BME280;62652;42.274;-71.436;2023-10-09T02:34:01;99810.0;;;11.277777777777777;100.0
64862;BME280;62652;42.274;-71.436;2023-10-09T02:35:01;99810.0;;;11.277777777777777;100.0
64862;BME280;62652;42.274;-71.436;2023-10-09T02:36:01;99810.0;;;11.277777777777777;100.0
64862;BME280;62652;42.274;-71.436;2023-10-09T02:37:00;99810.0;;;11.277777777777777;100.0
64862;BME280;62652;42.274;-71.436;2023-10-09T02:38:01;99810.0;;;11.277777777777777;100.0
64862;BME280;62652;42.274;-71.436;2023-10-09T02:39:00;99810.0;;;11.277777777777777;100.0
64862;BME280;62652;42.274;-71.436;2023-10-09T02:40:00;99810.0;;;11.277777777777777;100.0
64862;BME280;62652;42.274;-71.436;2023-10-09T02:41:01;99810.0;;;11.222222222222223;100.0
64862;BME280;62652;42.274;-71.436;2023-10-09T02:42:00;99810.0;;;11.277777777777777;100.0
64862;BME280;62652;42.274;-71.436;2023-10-09T02:43:00;99810.0;;;11.277777777777777;100.0
64862;BME280;62652;42.274;-71.436;2023-10-09T02:44:01;99810.0;;;11.277777777777777;100.0
64862;BME280;62652;42.274;-71.436;2023-10-09T02:45:01;99810.0;;;11.222222222222223;100.0
64862;BME280;62652;42.274;-71.436;2023-10-09T02:46:01;99810.0;;;11.222222222222223;100.0
64862;BME280;62652;42.274;-71.436;2023-10-09T02:47:00;99810.0;;;11.11111111111111;100.0
64862;BME280;62652;42.274;-71.436;2023-10-09T02:48:01;99810.0;;;11.222222222222223;100.0
64862;BME280;62652;42.274;-71.436;2023-10-09T02:49:02;99800.0;;;11.222222222222223;100.0
64862;BME280;62652;42.274;-71.436;2023-10-09T02:50:00;99810.0;;;11.277777777777777;100.0
64862;BME280;62652;42.274;-71.436;2023-10-09T02:51:00;99800.0;;;11.222222222222223;100.0
64862;BME280;62652;42.274;-71.436;2023-10-09T02:52:00;99810.0;;;11.222222222222223;100.0
64862;BME280;62652;42.274;-71.436;2023-10-09T02:53:00;99800.0;;;11.222222222222223;100.0
64862;BME280;62652;42.274;-71.436;2023-10-09T02:54:02;99810.0;;;11.222222222222223;100.0
64862;BME280;62652;42.274;-71.436;2023-10-09T02:55:01;99810.0;;;11.222222222222223;100.0
64862;BME280;62652;42.274;-71.436;2023-10-09T02:56:01;99800.0;;;11.222222222222223;100.0
64862;BME280;62652;42.274;-71.436;2023-10-09T02:57:01;99800.0;;;11.222222222222223;100.0
64862;BME280;62652;42.274;-71.436;2023-10-09T02:58:00;99800.0;;;11.11111111111111;100.0
64862;BME280;62652;42.274;-71.436;2023-10-09T02:59:00;99800.0;;;11.222222222222223;100.0
64862;BME280;62652;42.274;-71.436;2023-10-09T03:00:00;99810.0;;;11.222222222222223;100.0
64862;BME280;62652;42.274;-71.436;2023-10-09T03:01:00;99800.0;;;11.222222222222223;99.8
64862;BME280;62652;42.274;-71.436;2023-10-09T03:02:00;99800.0;;;11.11111111111111;99.9
64862;BME280;62652;42.274;-71.436;2023-10-09T03:03:01;99810.0;;;11.11111111111111;100.0
64862;BME280;62652;42.274;-71.436;2023-10-09T03:04:01;99800.0;;;11.11111111111111;100.0
64862;BME280;62652;42.274;-71.436;2023-10-09T03:05:00;99800.0;;;11.11111111111111;100.0
64862;BME280;62652;42.274;-71.436;2023-10-09T03:06:01;99800.0;;;11.11111111111111;100.0
64862;BME280;62652;42.274;-71.436;2023-10-09T03:07:01;99800.0;;;11.11111111111111;100.0
64862;BME280;62652;42.274;-71.436;2023-10-09T03:08:01;99790.0;;;11.11111111111111;99.8
64862;BME280;62652;42.274;-71.436;2023-10-09T03:09:01;99790.0;;;10.999999999999998;100.0
64862;BME280;62652;42.274;-71.436;2023-10-09T03:10:00;99780.0;;;11.11111111111111;100.0
64862;BME280;62652;42.274;-71.436;2023-10-09T03:11:00;99790.0;;;10.999999999999998;100.0
64862;BME280;62652;42.274;-71.436;2023-10-09T03:12:02;99780.0;;;11.11111111111111;100.0
64862;BME280;62652;42.274;-71.436;2023-10-09T03:13:01;99780.0;;;11.11111111111111;98.8
64862;BME280;62652;42.274;-71.436;2023-10-09T03:14:01;99780.0;;;11.11111111111111;98.1
64862;BME280;62652;42.274;-71.436;2023-10-09T03:15:01;99780.0;;;11.11111111111111;98.4
64862;BME280;62652;42.274;-71.436;2023-10-09T03:16:00;99780.0;;;11.11111111111111;98.2
64862;BME280;62652;42.274;-71.436;2023-10-09T03:17:01;99780.0;;;11.11111111111111;98.5
64862;BME280;62652;42.274;-71.436;2023-10-09T03:18:01;99780.0;;;11.11111111111111;98.0
64862;BME280;62652;42.274;-71.436;2023-10-09T03:19:01;99790.0;;;11.11111111111111;97.7
64862;BME280;62652;42.274;-71.436;2023-10-09T03:20:03;99790.0;;;11.11111111111111;98.1
64862;BME280;62652;42.274;-71.436;2023-10-09T03:21:01;99790.0;;;11.11111111111111;97.8
64862;BME280;62652;42.274;-71.436;2023-10-09T03:22:00;99790.0;;;11.11111111111111;97.7
64862;BME280;62652;42.274;-71.436;2023-10-09T03:23:00;99790.0;;;11.11111111111111;97.7
64862;BME280;62652;42.274;-71.436;2023-10-09T03:24:00;99790.0;;;11.11111111111111;97.6
64862;BME280;62652;42.274;-71.436;2023-10-09T03:25:00;99800.0;;;11.11111111111111;97.8
64862;BME280;62652;42.274;-71.436;2023-10-09T03:26:00;99800.0;;;11.11111111111111;97.5
64862;BME280;62652;42.274;-71.436;2023-10-09T03:27:01;99800.0;;;11.11111111111111;97.0
64862;BME280;62652;42.274;-71.436;2023-10-09T03:28:01;99800.0;;;11.11111111111111;97.2
64862;BME280;62652;42.274;-71.436;2023-10-09T03:29:00;99800.0;;;11.11111111111111;97.4
64862;BME280;62652;42.274;-71.436;2023-10-09T03:30:01;99800.0;;;11.11111111111111;97.6
64862;BME280;62652;42.274;-71.436;2023-10-09T03:31:01;99800.0;;;11.11111111111111;97.5
64862;BME280;62652;42.274;-71.436;2023-10-09T03:32:00;99800.0;;;11.11111111111111;96.7
64862;BME280;62652;42.274;-71.436;2023-10-09T03:33:00;99800.0;;;11.11111111111111;97.3
64862;BME280;62652;42.274;-71.436;2023-10-09T03:34:00;99800.0;;;11.11111111111111;97.3
64862;BME280;62652;42.274;-71.436;2023-10-09T03:35:00;99800.0;;;11.11111111111111;96.6
64862;BME280;62652;42.274;-71.436;2023-10-09T03:36:00;99810.0;;;11.11111111111111;96.5
64862;BME280;62652;42.274;-71.436;2023-10-09T03:37:01;99810.0;;;11.11111111111111;97.0
64862;BME280;62652;42.274;-71.436;2023-10-09T03:38:00;99810.0;;;10.999999999999998;97.1
64862;BME280;62652;42.274;-71.436;2023-10-09T03:39:00;99810.0;;;10.999999999999998;97.4
64862;BME280;62652;42.274;-71.436;2023-10-09T03:40:00;99810.0;;;10.999999999999998;97.4
64862;BME280;62652;42.274;-71.436;2023-10-09T03:41:01;99810.0;;;11.11111111111111;97.6
64862;BME280;62652;42.274;-71.436;2023-10-09T03:42:01;99810.0;;;11.11111111111111;97.6
64862;BME280;62652;42.274;-71.436;2023-10-09T03:43:00;99820.0;;;10.999999999999998;97.7
64862;BME280;62652;42.274;-71.436;2023-10-09T03:44:00;99820.0;;;10.999999999999998;97.9
64862;BME280;62652;42.274;-71.436;2023-10-09T03:45:01;99820.0;;;10.999999999999998;98.3
64862;BME280;62652;42.274;-71.436;2023-10-09T03:46:01;99820.0;;;10.88888888888889;99.1
64862;BME280;62652;42.274;-71.436;2023-10-09T03:47:01;99820.0;;;10.999999999999998;98.9
64862;BME280;62652;42.274;-71.436;2023-10-09T03:48:01;99820.0;;;10.88888888888889;98.4
64862;BME280;62652;42.274;-71.436;2023-10-09T03:49:01;99820.0;;;10.88888888888889;98.9
64862;BME280;62652;42.274;-71.436;2023-10-09T03:50:01;99820.0;;;10.88888888888889;99.4
64862;BME280;62652;42.274;-71.436;2023-10-09T03:51:00;99820.0;;;10.777777777777779;100.0
64862;BME280;62652;42.274;-71.436;2023-10-09T03:52:01;99830.0;;;10.777777777777779;100.0
64862;BME280;62652;42.274;-71.436;2023-10-09T03:53:02;99820.0;;;10.777777777777779;100.0
64862;BME280;62652;42.274;-71.436;2023-10-09T03:54:00;99820.0;;;10.722222222222221;100.0
64862;BME280;62652;42.274;-71.436;2023-10-09T03:55:01;99820.0;;;10.722222222222221;100.0
64862;BME280;62652;42.274;-71.436;2023-10-09T03:56:00;99820.0;;;10.722222222222221;100.0
64862;BME280;62652;42.274;-71.436;2023-10-09T03:57:01;99830.0;;;10.722222222222221;100.0
64862;BME280;62652;42.274;-71.436;2023-10-09T03:58:01;99830.0;;;10.61111111111111;100.0
64862;BME280;62652;42.274;-71.436;2023-10-09T03:59:01;99830.0;;;10.61111111111111;100.0
64862;BME280;62652;42.274;-71.436;2023-10-09T04:00:00;99830.0;;;10.61111111111111;100.0
64862;BME280;62652;42.274;-71.436;2023-10-09T04:01:07;99830.0;;;10.5;100.0
64862;BME280;62652;42.274;-71.436;2023-10-09T04:02:00;99830.0;;;10.5;100.0
64862;BME280;62652;42.274;-71.436;2023-10-09T04:03:01;99830.0;;;10.388888888888891;100.0
64862;BME280;62652;42.274;-71.436;2023-10-09T04:04:01;99830.0;;;10.388888888888891;100.0
64862;BME280;62652;42.274;-71.436;2023-10-09T04:05:00;99830.0;;;10.388888888888891;100.0
64862;BME280;62652;42.274;-71.436;2023-10-09T04:06:00;99830.0;;;10.277777777777779;100.0
64862;BME280;62652;42.274;-71.436;2023-10-09T04:07:01;99830.0;;;10.222222222222221;100.0
64862;BME280;62652;42.274;-71.436;2023-10-09T04:08:01;99830.0;;;10.222222222222221;100.0
64862;BME280;62652;42.274;-71.436;2023-10-09T04:09:02;99830.0;;;10.222222222222221;100.0
64862;BME280;62652;42.274;-71.436;2023-10-09T04:10:01;99830.0;;;10.222222222222221;100.0
64862;BME280;62652;42.274;-71.436;2023-10-09T04:11:01;99830.0;;;10.222222222222221;100.0
64862;BME280;62652;42.274;-71.436;2023-10-09T04:12:00;99830.0;;;10.222222222222221;100.0
64862;BME280;62652;42.274;-71.436;2023-10-09T04:13:00;99830.0;;;10.277777777777779;100.0
64862;BME280;62652;42.274;-71.436;2023-10-09T04:14:01;99830.0;;;10.277777777777779;100.0
64862;BME280;62652;42.274;-71.436;2023-10-09T04:15:01;99830.0;;;10.222222222222221;100.0
64862;BME280;62652;42.274;-71.436;2023-10-09T04:16:01;99830.0;;;10.222222222222221;100.0
64862;BME280;62652;42.274;-71.436;2023-10-09T04:17:01;99830.0;;;10.111111111111112;100.0
64862;BME280;62652;42.274;-71.436;2023-10-09T04:18:00;99820.0;;;10.111111111111112;100.0
64862;BME280;62652;42.274;-71.436;2023-10-09T04:19:01;99820.0;;;10.111111111111112;100.0
64862;BME280;62652;42.274;-71.436;2023-10-09T04:20:01;99820.0;;;10.111111111111112;100.0
64862;BME280;62652;42.274;-71.436;2023-10-09T04:21:00;99820.0;;;10.111111111111112;100.0
64862;BME280;62652;42.274;-71.436;2023-10-09T04:22:00;99820.0;;;10.111111111111112;100.0
64862;BME280;62652;42.274;-71.436;2023-10-09T04:23:01;99820.0;;;9.888888888888888;100.0
64862;BME280;62652;42.274;-71.436;2023-10-09T04:24:01;99830.0;;;10.0;100.0
64862;BME280;62652;42.274;-71.436;2023-10-09T04:25:00;99820.0;;;10.0;100.0
64862;BME280;62652;42.274;-71.436;2023-10-09T04:26:01;99820.0;;;10.0;100.0
64862;BME280;62652;42.274;-71.436;2023-10-09T04:27:00;99820.0;;;10.0;100.0
64862;BME280;62652;42.274;-71.436;2023-10-09T04:28:01;99820.0;;;9.888888888888888;100.0
64862;BME280;62652;42.274;-71.436;2023-10-09T04:29:00;99820.0;;;9.888888888888888;100.0
64862;BME280;62652;42.274;-71.436;2023-10-09T04:30:00;99820.0;;;9.888888888888888;100.0
64862;BME280;62652;42.274;-71.436;2023-10-09T04:31:00;99820.0;;;9.888888888888888;100.0
64862;BME280;62652;42.274;-71.436;2023-10-09T04:32:00;99820.0;;;9.888888888888888;100.0